createdAt,value
2022-11-06T00:00:49.789Z,7.10
2022-11-06T00:02:23.135Z,7.10
2022-11-06T00:03:56.490Z,7.00
2022-11-06T00:05:48.413Z,7.00
2022-11-06T00:07:20.604Z,7.00
2022-11-06T00:08:53.856Z,7.00
2022-11-06T00:10:27.301Z,7.00
2022-11-06T00:12:00.604Z,7.00
2022-11-06T00:13:35.332Z,6.90
2022-11-06T00:15:09.733Z,7.00
2022-11-06T00:16:44.479Z,6.90
2022-11-06T00:18:18.020Z,6.90
2022-11-06T00:19:51.293Z,6.90
2022-11-06T00:21:29.697Z,6.80
2022-11-06T00:23:02.878Z,6.80
2022-11-06T00:24:36.083Z,6.80
2022-11-06T00:26:11.740Z,6.80
2022-11-06T00:27:44.942Z,6.80
2022-11-06T00:29:20.398Z,6.80
2022-11-06T00:31:03.335Z,6.70
2022-11-06T00:32:36.663Z,6.70
2022-11-06T00:34:11.466Z,6.70
2022-11-06T00:35:44.922Z,6.70
2022-11-06T00:37:18.064Z,6.70
2022-11-06T00:38:53.666Z,6.70
2022-11-06T00:40:26.869Z,6.70
2022-11-06T00:42:00.266Z,6.60
2022-11-06T00:43:34.016Z,6.60
2022-11-06T00:45:10.785Z,6.50
2022-11-06T00:46:44.181Z,6.60
2022-11-06T00:48:17.406Z,6.60
2022-11-06T00:49:50.614Z,6.60
2022-11-06T00:51:28.732Z,6.60
2022-11-06T00:53:02.000Z,6.60
2022-11-06T00:54:36.213Z,6.50
2022-11-06T00:56:13.197Z,6.50
2022-11-06T00:57:46.338Z,6.50
2022-11-06T00:59:19.864Z,6.50
2022-11-06T01:00:54.590Z,6.50
2022-11-06T01:02:27.929Z,6.50
2022-11-06T01:04:04.422Z,6.50
2022-11-06T01:05:37.639Z,6.50
2022-11-06T01:07:10.819Z,6.50
2022-11-06T01:08:44.002Z,6.50
2022-11-06T01:10:17.388Z,6.50
2022-11-06T01:12:12.882Z,6.50
2022-11-06T01:13:49.672Z,6.50
2022-11-06T01:15:22.877Z,6.50
2022-11-06T01:16:57.568Z,6.50
2022-11-06T01:18:30.119Z,6.50
2022-11-06T01:20:06.426Z,6.50
2022-11-06T01:21:42.443Z,6.50
2022-11-06T01:23:15.601Z,6.50
2022-11-06T01:24:48.821Z,6.50
2022-11-06T01:26:37.372Z,6.60
2022-11-06T01:28:12.018Z,6.50
2022-11-06T01:29:46.171Z,6.50
2022-11-06T01:31:23.673Z,6.50
2022-11-06T01:32:58.468Z,6.50
2022-11-06T01:34:31.879Z,6.60
2022-11-06T01:36:06.699Z,6.50
2022-11-06T01:37:39.871Z,6.50
2022-11-06T01:39:16.436Z,6.60
2022-11-06T01:40:51.556Z,6.60
2022-11-06T01:42:24.728Z,6.60
2022-11-06T01:44:00.483Z,6.60
2022-11-06T01:45:40.775Z,6.60
2022-11-06T01:47:24.572Z,6.60
2022-11-06T01:49:04.780Z,6.60
2022-11-06T01:50:39.139Z,6.60
2022-11-06T01:52:14.314Z,6.60
2022-11-06T01:53:48.046Z,6.50
2022-11-06T01:55:29.757Z,6.50
2022-11-06T01:57:04.598Z,6.50
2022-11-06T01:58:41.525Z,6.50
2022-11-06T02:00:20.931Z,6.50
2022-11-06T02:01:54.968Z,6.50
2022-11-06T02:03:28.396Z,6.50
2022-11-06T02:05:02.102Z,6.50
2022-11-06T02:06:35.868Z,6.50
2022-11-06T02:08:14.560Z,6.50
2022-11-06T02:09:48.595Z,6.50
2022-11-06T02:11:22.258Z,6.40
2022-11-06T02:13:13.212Z,6.40
2022-11-06T02:15:01.707Z,6.40
2022-11-06T02:16:45.875Z,6.40
2022-11-06T02:19:04.982Z,6.40
2022-11-06T02:20:53.429Z,6.40
2022-11-06T02:22:42.925Z,6.40
2022-11-06T02:25:09.441Z,6.30
2022-11-06T02:27:04.262Z,6.30
2022-11-06T02:28:45.369Z,6.30
2022-11-06T02:30:19.870Z,6.30
2022-11-06T02:31:57.036Z,6.30
2022-11-06T02:33:35.619Z,6.30
2022-11-06T02:35:23.427Z,6.20
2022-11-06T02:37:02.108Z,6.20
2022-11-06T02:38:41.412Z,6.20
2022-11-06T02:40:17.141Z,6.20
2022-11-06T02:41:54.288Z,6.20
2022-11-06T02:43:33.294Z,6.20
2022-11-06T02:45:11.906Z,6.10
2022-11-06T02:46:51.689Z,6.20
2022-11-06T02:48:32.269Z,6.10
2022-11-06T02:50:12.865Z,6.10
2022-11-06T02:51:51.814Z,6.10
2022-11-06T02:53:27.518Z,6.10
2022-11-06T02:55:10.612Z,6.10
2022-11-06T02:56:47.569Z,6.10
2022-11-06T02:58:27.117Z,6.10
2022-11-06T03:00:07.041Z,6.10
2022-11-06T03:01:45.691Z,6.10
2022-11-06T03:03:26.961Z,6.10
2022-11-06T03:05:07.591Z,6.00
2022-11-06T03:06:45.551Z,6.00
2022-11-06T03:08:27.372Z,6.00
2022-11-06T03:10:00.841Z,6.00
2022-11-06T03:11:38.867Z,6.00
2022-11-06T03:13:20.347Z,6.00
2022-11-06T03:15:04.765Z,6.00
2022-11-06T03:16:50.348Z,6.00
2022-11-06T03:18:34.375Z,6.00
2022-11-06T03:20:21.553Z,5.90
2022-11-06T03:22:05.051Z,5.90
2022-11-06T03:23:48.367Z,5.90
2022-11-06T03:25:27.629Z,5.90
2022-11-06T03:27:10.480Z,5.90
2022-11-06T03:28:54.200Z,5.90
2022-11-06T03:30:29.018Z,5.90
2022-11-06T03:32:13.232Z,5.90
2022-11-06T03:33:53.690Z,5.90
2022-11-06T03:35:36.064Z,5.90
2022-11-06T03:37:16.821Z,5.90
2022-11-06T03:39:00.281Z,5.90
2022-11-06T03:40:41.084Z,5.90
2022-11-06T03:42:21.315Z,5.90
2022-11-06T03:43:58.777Z,5.90
2022-11-06T03:45:35.841Z,5.80
2022-11-06T03:47:14.962Z,5.90
2022-11-06T03:48:53.363Z,5.80
2022-11-06T03:50:33.001Z,5.80
2022-11-06T03:52:10.702Z,5.80
2022-11-06T03:53:50.799Z,5.80
2022-11-06T03:55:29.321Z,5.80
2022-11-06T03:57:10.719Z,5.80
2022-11-06T03:58:48.903Z,5.80
2022-11-06T04:00:22.682Z,5.80
2022-11-06T04:01:59.835Z,5.80
2022-11-06T04:03:43.061Z,5.90
2022-11-06T04:05:23.822Z,5.80
2022-11-06T04:07:00.750Z,5.90
2022-11-06T04:08:52.638Z,5.80
2022-11-06T04:10:42.756Z,5.80
2022-11-06T04:12:41.115Z,5.80
2022-11-06T04:14:17.516Z,5.80
2022-11-06T04:15:55.042Z,5.80
2022-11-06T04:17:31.102Z,5.80
2022-11-06T04:19:07.182Z,5.80
2022-11-06T04:21:08.645Z,5.80
2022-11-06T04:22:56.633Z,5.80
2022-11-06T04:25:03.991Z,5.80
2022-11-06T04:26:52.749Z,5.80
2022-11-06T04:28:36.782Z,5.80
2022-11-06T04:30:13.604Z,5.80
2022-11-06T04:32:02.335Z,5.80
2022-11-06T04:33:50.223Z,5.80
2022-11-06T04:35:35.421Z,5.90
2022-11-06T04:37:16.201Z,5.90
2022-11-06T04:39:02.100Z,5.90
2022-11-06T04:40:48.137Z,5.90
2022-11-06T04:42:30.346Z,5.90
2022-11-06T04:44:10.873Z,5.90
2022-11-06T04:45:50.786Z,6.00
2022-11-06T04:47:26.193Z,5.90
2022-11-06T04:49:03.771Z,5.90
2022-11-06T04:50:44.009Z,5.90
2022-11-06T04:52:22.498Z,5.90
2022-11-06T04:53:57.037Z,5.90
2022-11-06T04:55:31.440Z,6.00
2022-11-06T04:57:05.760Z,6.00
2022-11-06T04:58:39.561Z,6.00
2022-11-06T05:00:15.851Z,6.00
2022-11-06T05:01:49.185Z,6.00
2022-11-06T05:03:22.398Z,6.00
2022-11-06T05:04:57.004Z,6.00
2022-11-06T05:06:30.552Z,6.00
2022-11-06T05:08:03.265Z,6.00
2022-11-06T05:09:36.465Z,6.00
2022-11-06T05:11:09.871Z,6.00
2022-11-06T05:12:43.116Z,6.00
2022-11-06T05:14:16.240Z,6.00
2022-11-06T05:15:49.444Z,6.00
2022-11-06T05:17:22.670Z,6.00
2022-11-06T05:18:55.818Z,6.00
2022-11-06T05:20:30.464Z,6.00
2022-11-06T05:22:21.261Z,6.00
2022-11-06T05:23:53.421Z,6.00
2022-11-06T05:25:27.096Z,6.00
2022-11-06T05:27:00.323Z,6.00
2022-11-06T05:28:33.785Z,6.00
2022-11-06T05:30:09.350Z,6.00
2022-11-06T05:31:42.612Z,6.00
2022-11-06T05:33:15.720Z,6.00
2022-11-06T05:34:48.840Z,6.00
2022-11-06T05:36:23.565Z,6.00
2022-11-06T05:38:00.690Z,6.00
2022-11-06T05:39:37.703Z,6.00
2022-11-06T05:41:13.968Z,6.00
2022-11-06T05:42:47.410Z,6.00
2022-11-06T05:44:20.711Z,6.00
2022-11-06T05:45:54.445Z,6.00
2022-11-06T05:47:27.690Z,6.10
2022-11-06T05:49:01.066Z,6.00
2022-11-06T05:50:34.216Z,6.00
2022-11-06T05:52:11.516Z,6.00
2022-11-06T05:53:44.632Z,6.00
2022-11-06T05:55:18.273Z,6.00
2022-11-06T05:56:51.377Z,6.00
2022-11-06T05:58:24.541Z,6.00
2022-11-06T05:59:57.638Z,6.10
2022-11-06T06:01:30.926Z,6.00
2022-11-06T06:03:04.724Z,6.00
2022-11-06T06:04:38.134Z,6.20
2022-11-06T06:06:11.361Z,6.00
2022-11-06T06:07:45.957Z,6.00
2022-11-06T06:09:19.125Z,6.00
2022-11-06T06:10:52.370Z,6.00
2022-11-06T06:12:26.404Z,6.00
2022-11-06T06:14:00.523Z,6.00
2022-11-06T06:15:33.709Z,6.00
2022-11-06T06:17:07.261Z,6.00
2022-11-06T06:18:40.374Z,6.00
2022-11-06T06:20:14.384Z,6.10
2022-11-06T06:21:47.573Z,6.00
2022-11-06T06:23:22.208Z,6.00
2022-11-06T06:24:55.526Z,6.00
2022-11-06T06:26:28.852Z,6.00
2022-11-06T06:28:02.185Z,6.00
2022-11-06T06:29:35.681Z,6.10
2022-11-06T06:31:10.078Z,6.10
2022-11-06T06:32:43.466Z,6.10
2022-11-06T06:34:17.002Z,6.10
2022-11-06T06:35:50.410Z,6.10
2022-11-06T06:37:23.576Z,6.10
2022-11-06T06:38:58.082Z,6.10
2022-11-06T06:40:31.445Z,6.10
2022-11-06T06:42:04.943Z,6.10
2022-11-06T06:43:38.231Z,6.10
2022-11-06T06:45:11.838Z,6.10
2022-11-06T06:46:45.053Z,6.10
2022-11-06T06:48:18.568Z,6.10
2022-11-06T06:49:51.924Z,6.10
2022-11-06T06:51:25.156Z,6.10
2022-11-06T06:52:59.101Z,6.10
2022-11-06T06:54:33.612Z,6.20
2022-11-06T06:56:08.017Z,6.20
2022-11-06T06:57:41.277Z,6.20
2022-11-06T06:59:14.514Z,6.20
2022-11-06T07:00:48.335Z,6.20
2022-11-06T07:02:21.789Z,6.20
2022-11-06T07:03:58.714Z,6.20
2022-11-06T07:05:36.954Z,6.20
2022-11-06T07:07:10.081Z,6.20
2022-11-06T07:08:43.377Z,6.20
2022-11-06T07:10:18.319Z,6.20
2022-11-06T07:11:51.465Z,6.20
2022-11-06T07:13:24.766Z,6.20
2022-11-06T07:14:58.058Z,6.30
2022-11-06T07:16:32.373Z,6.20
2022-11-06T07:18:06.663Z,6.30
2022-11-06T07:19:40.004Z,6.30
2022-11-06T07:21:14.625Z,6.30
2022-11-06T07:22:47.857Z,6.30
2022-11-06T07:24:21.225Z,6.30
2022-11-06T07:25:56.081Z,6.30
2022-11-06T07:27:30.082Z,6.30
2022-11-06T07:29:03.355Z,6.40
2022-11-06T07:30:38.528Z,6.40
2022-11-06T07:32:11.956Z,6.40
2022-11-06T07:33:45.268Z,6.40
2022-11-06T07:35:18.685Z,6.40
2022-11-06T07:36:51.936Z,6.40
2022-11-06T07:38:25.133Z,6.50
2022-11-06T07:39:58.397Z,6.50
2022-11-06T07:41:32.874Z,6.50
2022-11-06T07:43:07.508Z,6.50
2022-11-06T07:44:40.733Z,6.50
2022-11-06T07:46:14.592Z,6.60
2022-11-06T07:47:47.825Z,6.60
2022-11-06T07:49:21.002Z,6.60
2022-11-06T07:50:54.411Z,6.70
2022-11-06T07:52:27.736Z,6.60
2022-11-06T07:54:01.003Z,6.60
2022-11-06T07:55:37.844Z,6.60
2022-11-06T07:57:15.671Z,6.60
2022-11-06T07:58:48.842Z,6.70
2022-11-06T08:00:22.333Z,6.70
2022-11-06T08:01:55.757Z,6.70
2022-11-06T08:03:30.075Z,6.70
2022-11-06T08:05:03.445Z,6.70
2022-11-06T08:06:36.663Z,6.70
2022-11-06T08:08:11.206Z,6.70
2022-11-06T08:09:44.739Z,6.80
2022-11-06T08:11:18.358Z,6.80
2022-11-06T08:12:52.840Z,6.80
2022-11-06T08:14:26.036Z,6.80
2022-11-06T08:15:59.285Z,6.90
2022-11-06T08:17:32.637Z,6.90
2022-11-06T08:19:06.051Z,6.90
2022-11-06T08:20:40.926Z,7.00
2022-11-06T08:22:14.127Z,7.00
2022-11-06T08:23:47.326Z,7.00
2022-11-06T08:25:20.522Z,7.00
2022-11-06T08:26:54.283Z,7.10
2022-11-06T08:28:30.575Z,7.10
2022-11-06T08:30:04.265Z,7.10
2022-11-06T08:31:37.452Z,7.10
2022-11-06T08:33:11.696Z,7.20
2022-11-06T08:34:45.947Z,7.20
2022-11-06T08:36:19.304Z,7.30
2022-11-06T08:37:52.464Z,7.30
2022-11-06T08:39:25.769Z,7.40
2022-11-06T08:40:59.159Z,7.40
2022-11-06T08:42:32.376Z,7.40
2022-11-06T08:44:07.215Z,7.50
2022-11-06T08:45:42.959Z,7.50
2022-11-06T08:47:16.205Z,7.60
2022-11-06T08:48:49.813Z,7.60
2022-11-06T08:50:23.429Z,7.70
2022-11-06T08:51:56.725Z,7.70
2022-11-06T08:53:30.045Z,7.70
2022-11-06T08:55:03.923Z,7.80
2022-11-06T08:56:37.181Z,7.80
2022-11-06T08:58:11.468Z,7.80
2022-11-06T08:59:45.978Z,7.90
2022-11-06T09:01:19.315Z,7.90
2022-11-06T09:02:52.683Z,8.00
2022-11-06T09:04:25.862Z,8.00
2022-11-06T09:05:59.088Z,8.10
2022-11-06T09:07:32.273Z,8.10
2022-11-06T09:09:05.655Z,8.20
2022-11-06T09:10:40.906Z,8.20
2022-11-06T09:12:14.145Z,8.20
2022-11-06T09:13:47.292Z,8.30
2022-11-06T09:15:22.232Z,8.40
2022-11-06T09:16:55.459Z,8.40
2022-11-06T09:18:28.819Z,8.50
2022-11-06T09:20:02.132Z,8.50
2022-11-06T09:21:35.955Z,8.60
2022-11-06T09:23:15.659Z,8.60
2022-11-06T09:25:03.134Z,8.80
2022-11-06T09:26:37.289Z,8.80
2022-11-06T09:28:10.480Z,8.80
2022-11-06T09:29:44.508Z,8.90
2022-11-06T09:31:19.087Z,8.90
2022-11-06T09:32:55.014Z,9.00
2022-11-06T09:34:28.286Z,9.00
2022-11-06T09:36:04.827Z,9.10
2022-11-06T09:37:38.089Z,9.10
2022-11-06T09:39:11.404Z,9.20
2022-11-06T09:40:52.357Z,9.30
2022-11-06T09:42:38.121Z,9.30
2022-11-06T09:44:35.049Z,9.50
2022-11-06T09:46:18.982Z,9.50
2022-11-06T09:48:00.412Z,9.60
2022-11-06T09:49:41.783Z,9.70
2022-11-06T09:51:27.571Z,9.80
2022-11-06T09:53:09.353Z,9.90
2022-11-06T09:54:52.080Z,10.00
2022-11-06T09:56:32.957Z,10.00
2022-11-06T09:58:14.429Z,10.10
2022-11-06T09:59:49.746Z,10.20
2022-11-06T10:01:27.818Z,10.30
2022-11-06T10:03:13.244Z,10.40
2022-11-06T10:04:56.767Z,10.50
2022-11-06T10:06:31.098Z,10.60
2022-11-06T10:08:08.210Z,10.70
2022-11-06T10:09:41.504Z,10.80
2022-11-06T10:11:51.650Z,10.90
2022-11-06T10:13:45.112Z,10.90
2022-11-06T10:15:28.825Z,11.00
2022-11-06T10:17:14.845Z,11.10
2022-11-06T10:19:08.024Z,11.10
2022-11-06T10:20:52.448Z,11.20
2022-11-06T10:22:35.042Z,11.20
2022-11-06T10:24:24.571Z,11.30
2022-11-06T10:26:12.986Z,11.30
2022-11-06T10:28:01.789Z,11.30
2022-11-06T10:29:57.849Z,11.40
2022-11-06T10:31:39.975Z,11.40
2022-11-06T10:33:34.222Z,11.40
2022-11-06T10:35:20.647Z,11.40
2022-11-06T10:36:59.084Z,11.40
2022-11-06T10:38:39.241Z,11.50
2022-11-06T10:40:20.143Z,11.40
2022-11-06T10:42:01.238Z,11.50
2022-11-06T10:43:41.113Z,11.50
2022-11-06T10:45:18.300Z,11.60
2022-11-06T10:46:56.389Z,11.60
2022-11-06T10:48:37.099Z,11.70
2022-11-06T10:50:18.741Z,11.70
2022-11-06T10:52:26.358Z,11.70
2022-11-06T10:54:19.036Z,11.70
2022-11-06T10:56:22.528Z,11.80
2022-11-06T10:58:02.234Z,11.70
2022-11-06T10:59:35.807Z,11.80
2022-11-06T11:01:15.535Z,11.80
2022-11-06T11:02:54.621Z,11.70
2022-11-06T11:04:27.870Z,11.80
2022-11-06T11:06:04.126Z,11.70
2022-11-06T11:07:37.558Z,11.70
2022-11-06T11:09:32.919Z,11.70
2022-11-06T11:11:17.143Z,11.70
2022-11-06T11:12:51.216Z,11.70
2022-11-06T11:14:27.276Z,11.60
2022-11-06T11:16:00.595Z,11.60
2022-11-06T11:17:33.955Z,11.60
2022-11-06T11:19:25.110Z,11.60
2022-11-06T11:21:16.275Z,11.50
2022-11-06T11:23:15.416Z,11.60
2022-11-06T11:25:03.046Z,11.50
2022-11-06T11:26:43.731Z,11.50
2022-11-06T11:28:34.767Z,11.50
2022-11-06T11:30:22.883Z,11.50
2022-11-06T11:32:00.622Z,11.40
2022-11-06T11:33:35.073Z,11.40
2022-11-06T11:35:11.985Z,11.40
2022-11-06T11:37:00.964Z,11.40
2022-11-06T11:38:38.421Z,11.40
2022-11-06T11:40:36.351Z,11.40
2022-11-06T11:42:29.397Z,11.40
2022-11-06T11:44:08.295Z,11.30
2022-11-06T11:45:41.580Z,11.30
2022-11-06T11:47:25.024Z,11.30
2022-11-06T11:49:00.346Z,11.30
2022-11-06T11:50:35.063Z,11.30
2022-11-06T11:52:17.405Z,11.30
2022-11-06T11:53:51.956Z,11.30
2022-11-06T11:55:29.260Z,11.30
2022-11-06T11:57:07.145Z,11.30
2022-11-06T11:58:41.140Z,11.30
2022-11-06T12:00:20.423Z,11.30
2022-11-06T12:01:55.620Z,11.30
2022-11-06T12:03:34.980Z,11.30
2022-11-06T12:05:14.731Z,11.30
2022-11-06T12:07:01.761Z,11.30
2022-11-06T12:08:40.573Z,11.30
2022-11-06T12:10:28.128Z,11.30
2022-11-06T12:12:03.179Z,11.30
2022-11-06T12:13:36.461Z,11.30
2022-11-06T12:15:22.204Z,11.30
2022-11-06T12:17:03.289Z,11.30
2022-11-06T12:18:41.352Z,11.30
2022-11-06T12:20:20.158Z,11.30
2022-11-06T12:22:01.681Z,11.30
2022-11-06T12:23:44.184Z,11.30
2022-11-06T12:25:24.333Z,11.30
2022-11-06T12:27:05.159Z,11.30
2022-11-06T12:28:42.285Z,11.30
2022-11-06T12:30:19.331Z,11.30
2022-11-06T12:32:03.128Z,11.30
2022-11-06T12:34:05.025Z,11.30
2022-11-06T12:35:39.027Z,11.30
2022-11-06T12:37:23.609Z,11.30
2022-11-06T12:39:05.026Z,11.30
2022-11-06T12:40:41.394Z,11.30
2022-11-06T12:42:16.893Z,11.30
2022-11-06T12:43:52.650Z,11.40
2022-11-06T12:45:43.093Z,11.40
2022-11-06T12:47:34.407Z,11.40
2022-11-06T12:50:02.097Z,11.40
2022-11-06T12:51:48.561Z,11.40
2022-11-06T12:53:40.277Z,11.40
2022-11-06T12:55:26.288Z,11.40
2022-11-06T12:57:14.044Z,11.40
2022-11-06T12:59:23.026Z,11.40
2022-11-06T13:01:09.119Z,11.40
2022-11-06T13:03:08.853Z,11.40
2022-11-06T13:04:54.852Z,11.40
2022-11-06T13:06:59.374Z,11.40
2022-11-06T13:08:44.213Z,11.40
2022-11-06T13:10:36.829Z,11.30
2022-11-06T13:12:20.788Z,11.30
2022-11-06T13:14:15.572Z,11.40
2022-11-06T13:16:01.181Z,11.30
2022-11-06T13:17:44.985Z,11.30
2022-11-06T13:19:29.642Z,11.30
2022-11-06T13:21:11.690Z,11.30
2022-11-06T13:22:52.802Z,11.30
2022-11-06T13:24:35.106Z,11.30
2022-11-06T13:26:18.473Z,11.30
2022-11-06T13:27:59.494Z,11.30
2022-11-06T13:29:32.938Z,11.30
2022-11-06T13:31:10.720Z,11.30
2022-11-06T13:32:53.764Z,11.30
2022-11-06T13:34:32.686Z,11.30
2022-11-06T13:36:08.163Z,11.30
2022-11-06T13:37:48.361Z,11.30
2022-11-06T13:39:30.755Z,11.30
2022-11-06T13:41:15.574Z,11.30
2022-11-06T13:42:55.528Z,11.30
2022-11-06T13:44:29.558Z,11.30
2022-11-06T13:46:13.277Z,11.30
2022-11-06T13:48:08.346Z,11.30
2022-11-06T13:49:58.092Z,11.30
2022-11-06T13:51:46.433Z,11.30
2022-11-06T13:53:28.533Z,11.30
2022-11-06T13:55:15.234Z,11.40
2022-11-06T13:57:13.239Z,11.40
2022-11-06T13:59:34.212Z,11.40
2022-11-06T14:01:25.508Z,11.40
2022-11-06T14:04:07.019Z,11.50
2022-11-06T14:06:05.131Z,11.40
2022-11-06T14:07:39.951Z,11.50
2022-11-06T14:09:20.144Z,11.50
2022-11-06T14:11:00.615Z,11.50
2022-11-06T14:12:35.609Z,11.60
2022-11-06T14:14:14.940Z,11.60
2022-11-06T14:15:49.078Z,11.60
2022-11-06T14:17:25.546Z,11.60
2022-11-06T14:19:05.002Z,11.60
2022-11-06T14:20:40.379Z,11.60
2022-11-06T14:22:29.323Z,11.60
2022-11-06T14:24:29.928Z,11.60
2022-11-06T14:26:08.680Z,11.60
2022-11-06T14:28:07.570Z,11.60
2022-11-06T14:30:07.700Z,11.60
2022-11-06T14:32:01.209Z,11.60
2022-11-06T14:34:01.661Z,11.70
2022-11-06T14:35:53.619Z,11.60
2022-11-06T14:37:47.613Z,11.60
2022-11-06T14:40:14.754Z,11.60
2022-11-06T14:41:59.175Z,11.60
2022-11-06T14:43:35.627Z,11.60
2022-11-06T14:45:16.540Z,11.60
2022-11-06T14:46:53.496Z,11.50
2022-11-06T14:48:31.916Z,11.50
2022-11-06T14:50:24.087Z,11.50
2022-11-06T14:52:05.544Z,11.50
2022-11-06T14:53:47.719Z,11.50
2022-11-06T14:55:31.327Z,11.50
2022-11-06T14:57:05.598Z,11.40
2022-11-06T14:58:49.752Z,11.40
2022-11-06T15:00:41.068Z,11.40
2022-11-06T15:02:23.089Z,11.40
2022-11-06T15:03:59.797Z,11.40
2022-11-06T15:05:42.121Z,11.40
2022-11-06T15:08:03.250Z,11.30
2022-11-06T15:09:47.772Z,11.30
2022-11-06T15:11:57.882Z,11.30
2022-11-06T15:13:31.327Z,11.30
2022-11-06T15:15:17.701Z,11.30
2022-11-06T15:16:55.465Z,11.20
2022-11-06T15:18:30.311Z,11.20
2022-11-06T15:20:15.907Z,11.20
2022-11-06T15:21:55.746Z,11.20
2022-11-06T15:23:35.377Z,11.20
2022-11-06T15:25:22.933Z,11.20
2022-11-06T15:27:05.637Z,11.20
2022-11-06T15:28:47.291Z,11.10
2022-11-06T15:30:22.338Z,11.10
2022-11-06T15:32:04.901Z,11.00
2022-11-06T15:33:54.470Z,11.00
2022-11-06T15:35:36.594Z,11.00
2022-11-06T15:37:14.050Z,11.10
2022-11-06T15:38:47.268Z,10.90
2022-11-06T15:40:28.613Z,11.00
2022-11-06T15:42:02.151Z,10.90
2022-11-06T15:43:37.750Z,10.90
2022-11-06T15:45:25.135Z,10.90
2022-11-06T15:47:00.664Z,10.90
2022-11-06T15:48:34.774Z,10.90
2022-11-06T15:50:16.466Z,10.90
2022-11-06T15:51:56.121Z,10.90
2022-11-06T15:53:30.789Z,10.80
2022-11-06T15:55:06.363Z,10.80
2022-11-06T15:56:40.063Z,10.80
2022-11-06T15:58:31.091Z,10.80
2022-11-06T16:00:19.281Z,10.80
2022-11-06T16:01:53.897Z,10.70
2022-11-06T16:03:31.246Z,10.70
2022-11-06T16:05:04.957Z,10.70
2022-11-06T16:06:38.921Z,10.70
2022-11-06T16:08:15.813Z,10.70
2022-11-06T16:09:52.464Z,10.60
2022-11-06T16:11:26.004Z,10.60
2022-11-06T16:12:59.753Z,10.60
2022-11-06T16:14:39.016Z,10.60
2022-11-06T16:16:33.603Z,10.50
2022-11-06T16:18:16.954Z,10.50
2022-11-06T16:19:52.346Z,10.50
2022-11-06T16:21:30.725Z,10.50
2022-11-06T16:23:05.598Z,10.50
2022-11-06T16:24:46.616Z,10.40
2022-11-06T16:26:25.673Z,10.40
2022-11-06T16:27:59.197Z,10.40
2022-11-06T16:29:32.954Z,10.40
2022-11-06T16:31:14.562Z,10.40
2022-11-06T16:32:48.322Z,10.30
2022-11-06T16:34:37.417Z,10.30
2022-11-06T16:36:14.398Z,10.20
2022-11-06T16:37:47.600Z,10.20
2022-11-06T16:39:50.881Z,10.20
2022-11-06T16:42:04.257Z,10.20
2022-11-06T16:43:37.975Z,10.10
2022-11-06T16:45:19.598Z,10.10
2022-11-06T16:47:18.716Z,10.10
2022-11-06T16:48:51.915Z,10.00
2022-11-06T16:50:46.383Z,10.00
2022-11-06T16:52:25.812Z,9.90
2022-11-06T16:54:01.618Z,9.90
2022-11-06T16:55:34.964Z,9.90
2022-11-06T16:57:17.089Z,9.80
2022-11-06T16:58:53.615Z,9.80
2022-11-06T17:00:30.981Z,9.80
2022-11-06T17:02:05.243Z,9.80
2022-11-06T17:03:48.324Z,9.70
2022-11-06T17:05:24.713Z,9.70
2022-11-06T17:06:59.737Z,9.70
2022-11-06T17:08:37.599Z,9.60
2022-11-06T17:10:43.088Z,9.60
2022-11-06T17:12:18.032Z,9.50
2022-11-06T17:13:52.725Z,9.50
2022-11-06T17:15:26.364Z,9.50
2022-11-06T17:17:02.475Z,9.30
2022-11-06T17:18:40.107Z,9.30
2022-11-06T17:20:18.206Z,9.30
2022-11-06T17:21:52.659Z,9.30
2022-11-06T17:23:28.957Z,9.20
2022-11-06T17:25:02.093Z,9.20
2022-11-06T17:26:44.760Z,9.20
2022-11-06T17:28:19.969Z,9.20
2022-11-06T17:29:53.185Z,9.10
2022-11-06T17:31:28.020Z,9.10
2022-11-06T17:33:01.059Z,9.10
2022-11-06T17:34:34.407Z,9.10
2022-11-06T17:36:08.975Z,9.10
2022-11-06T17:37:42.103Z,9.10
2022-11-06T17:39:15.420Z,9.00
2022-11-06T17:40:50.510Z,9.00
2022-11-06T17:42:23.660Z,9.00
2022-11-06T17:43:59.045Z,9.00
2022-11-06T17:45:32.201Z,9.00
2022-11-06T17:47:05.809Z,8.90
2022-11-06T17:48:38.971Z,8.90
2022-11-06T17:50:12.156Z,8.90
2022-11-06T17:51:50.458Z,8.90
2022-11-06T17:53:33.853Z,8.90
2022-11-06T17:55:08.941Z,8.90
2022-11-06T17:56:43.960Z,8.90
2022-11-06T17:58:17.317Z,8.80
2022-11-06T17:59:52.284Z,8.80
2022-11-06T18:01:29.288Z,8.80
2022-11-06T18:03:03.727Z,8.80
2022-11-06T18:04:40.474Z,8.70
2022-11-06T18:06:16.352Z,8.70
2022-11-06T18:07:49.666Z,8.80
2022-11-06T18:09:24.848Z,8.70
2022-11-06T18:10:58.731Z,8.70
2022-11-06T18:12:31.960Z,8.70
2022-11-06T18:14:05.392Z,8.70
2022-11-06T18:15:40.490Z,8.70
2022-11-06T18:17:13.975Z,8.60
2022-11-06T18:18:48.989Z,8.60
2022-11-06T18:20:22.182Z,8.60
2022-11-06T18:21:56.708Z,8.60
2022-11-06T18:23:30.377Z,8.60
2022-11-06T18:25:03.540Z,8.60
2022-11-06T18:26:38.377Z,8.60
2022-11-06T18:28:11.571Z,8.60
2022-11-06T18:29:44.725Z,8.50
2022-11-06T18:31:20.469Z,8.50
2022-11-06T18:32:53.757Z,8.50
2022-11-06T18:34:27.146Z,8.50
2022-11-06T18:36:05.505Z,8.50
2022-11-06T18:37:40.244Z,8.40
2022-11-06T18:39:13.418Z,8.50
2022-11-06T18:40:51.366Z,8.40
2022-11-06T18:42:25.165Z,8.40
2022-11-06T18:43:59.777Z,8.40
2022-11-06T18:45:33.237Z,8.40
2022-11-06T18:47:07.893Z,8.40
2022-11-06T18:48:42.530Z,8.40
2022-11-06T18:50:15.981Z,8.40
2022-11-06T18:51:49.218Z,8.40
2022-11-06T18:53:22.630Z,8.40
2022-11-06T18:55:00.611Z,8.50
2022-11-06T18:56:35.780Z,8.40
2022-11-06T18:58:09.051Z,8.40
2022-11-06T18:59:42.295Z,8.40
2022-11-06T19:01:18.777Z,8.40
2022-11-06T19:02:53.516Z,8.40
2022-11-06T19:04:27.853Z,8.40
2022-11-06T19:06:01.889Z,8.30
2022-11-06T19:07:35.141Z,8.40
2022-11-06T19:09:10.526Z,8.30
2022-11-06T19:10:43.989Z,8.40
2022-11-06T19:12:17.165Z,8.30
2022-11-06T19:13:50.417Z,8.30
2022-11-06T19:15:23.726Z,8.40
2022-11-06T19:16:57.053Z,8.30
2022-11-06T19:18:33.440Z,8.40
2022-11-06T19:20:14.728Z,8.40
2022-11-06T19:21:48.465Z,8.40
2022-11-06T19:23:22.375Z,8.40
2022-11-06T19:24:55.561Z,8.40
2022-11-06T19:26:31.657Z,8.40
2022-11-06T19:28:05.961Z,8.30
2022-11-06T19:29:39.101Z,8.40
2022-11-06T19:31:16.356Z,8.40
2022-11-06T19:32:49.885Z,8.40
2022-11-06T19:34:39.055Z,8.40
2022-11-06T19:36:12.754Z,8.40
2022-11-06T19:37:46.575Z,8.40
2022-11-06T19:39:19.862Z,8.40
2022-11-06T19:40:57.474Z,8.50
2022-11-06T19:42:34.441Z,8.40
2022-11-06T19:44:09.712Z,8.40
2022-11-06T19:45:43.810Z,8.50
2022-11-06T19:47:19.945Z,8.50
2022-11-06T19:48:53.219Z,8.50
2022-11-06T19:50:53.586Z,8.50
2022-11-06T19:52:42.070Z,8.50
2022-11-06T19:54:15.807Z,8.50
2022-11-06T19:55:50.012Z,8.50
2022-11-06T19:57:28.193Z,8.50
2022-11-06T19:59:05.436Z,8.50
2022-11-06T20:00:39.383Z,8.50
2022-11-06T20:02:14.219Z,8.50
2022-11-06T20:03:47.993Z,8.50
2022-11-06T20:05:21.303Z,8.50
2022-11-06T20:06:55.940Z,8.50
2022-11-06T20:08:29.460Z,8.50
2022-11-06T20:10:03.803Z,8.60
2022-11-06T20:11:40.085Z,8.60
2022-11-06T20:13:13.868Z,8.60
2022-11-06T20:14:48.874Z,8.60
2022-11-06T20:16:22.362Z,8.60
2022-11-06T20:17:58.515Z,8.60
2022-11-06T20:19:31.737Z,8.60
2022-11-06T20:21:11.824Z,8.60
2022-11-06T20:22:46.999Z,8.60
2022-11-06T20:24:20.150Z,8.60
2022-11-06T20:25:54.118Z,8.60
2022-11-06T20:27:27.412Z,8.70
2022-11-06T20:29:01.325Z,8.70
2022-11-06T20:30:34.575Z,8.70
2022-11-06T20:32:18.634Z,8.70
2022-11-06T20:33:53.724Z,8.70
2022-11-06T20:35:27.193Z,8.70
2022-11-06T20:37:00.584Z,8.70
2022-11-06T20:38:38.370Z,8.70
2022-11-06T20:40:13.077Z,8.70
2022-11-06T20:41:46.692Z,8.70
2022-11-06T20:43:19.866Z,8.70
2022-11-06T20:44:53.084Z,8.70
2022-11-06T20:46:26.837Z,8.80
2022-11-06T20:48:01.311Z,8.80
2022-11-06T20:49:35.191Z,8.80
2022-11-06T20:51:12.696Z,8.80
2022-11-06T20:52:47.359Z,8.80
2022-11-06T20:54:22.285Z,8.80
2022-11-06T20:55:59.716Z,8.80
2022-11-06T20:57:35.593Z,8.80
2022-11-06T20:59:10.133Z,8.80
2022-11-06T21:00:43.627Z,8.80
2022-11-06T21:02:17.087Z,8.80
2022-11-06T21:03:52.327Z,8.80
2022-11-06T21:05:25.581Z,8.90
2022-11-06T21:06:59.136Z,8.90
2022-11-06T21:08:33.793Z,9.00
2022-11-06T21:10:10.878Z,8.90
2022-11-06T21:11:44.229Z,8.90
2022-11-06T21:13:17.456Z,8.90
2022-11-06T21:14:50.683Z,8.90
2022-11-06T21:16:26.571Z,8.90
2022-11-06T21:17:59.819Z,8.90
2022-11-06T21:19:36.199Z,8.90
2022-11-06T21:21:12.785Z,8.90
2022-11-06T21:22:46.794Z,8.90
2022-11-06T21:24:20.176Z,8.90
2022-11-06T21:25:54.912Z,9.00
2022-11-06T21:27:28.244Z,9.00
2022-11-06T21:29:02.744Z,9.00
2022-11-06T21:30:41.683Z,9.00
2022-11-06T21:32:14.861Z,9.00
2022-11-06T21:33:50.913Z,9.00
2022-11-06T21:35:24.115Z,9.00
2022-11-06T21:37:02.347Z,9.00
2022-11-06T21:38:36.143Z,9.00
2022-11-06T21:40:17.053Z,9.00